Ramon, New Mexico
Current Conditions -  °F | °C
As of 4:56 AM on Friday 19 Dec 2014 (Local Time) from K4MR Reporting Station
Clear Clear  
Wind Chill: 21°   Ceiling: Unl
Heat Index: 28°   Visibility: 10mi
Dew Point: 24°   Wind: 7mph
Humidity: 86%   Direction: 210°SSW
Pressure: 30.09"   Gusts: NA
Location:  34.3529°N, 104.601°W
Report Text: K4MR 191156Z AUTO 21006KT 10SM CLR M02/M04 A3009 RMK AO2 SLP191 70008 T10231043 10058 21024 55003
Loading
Personal Weather Stations






























Interactive Weather Map New forecast layout! Learn more

10-Day Weather Forecast

Advertisements
Track Severe Weather on mobile